Terminal Aerodrome Forecast
Issued by NWS

Home | Current Version | Previous Version | Graphics & Text | Print | Product List | Glossary On
Versions: 1 2 3 4 5 6 7 8 9 10 11 12 13 14 15 16 17 18 19
316
FTUS43 KBIS 061739 AAA
TAFMOT
TAF AMD
KMOT 061739Z 0618/0718 29033G43KT 1/4SM SN BLSN BKN012 OVC020
      TEMPO 0619/0621 1SM BLSN OVC020
     FM062100 30030G41KT 1/2SM -SN BLSN OVC020
     FM062300 30024G34KT 1SM BLSN OVC025
     FM070500 29022G32KT 4SM BLSN OVC025=

USA.gov is the U.S. government's official web portal to all federal, state and local government web resources and services.